Time;durP1;ratioP1;P1;durP2;ratioP2;P2;SDS_P1;SDS_P2;PMS_P1;PMS_P2;Temp;Humidity;BMP_temperature;BMP_pressure;BME280_temperature;BME280_humidity;BME280_pressure;Samples;Min_cycle;Max_cycle;Signal;HPM_P1;HPM_P2
2021/12/22 00:00:30;;;;;;;0.10;0.10;;;0.00;99.90;226.50;231333.00;;;;5053735;28;20679;-73
2021/12/22 00:02:58;;;;;;;0.20;0.20;;;0.10;99.90;226.50;231333.00;;;;5051919;28;20227;-73
2021/12/22 00:05:30;;;;;;;0.20;0.20;;;0.10;99.90;226.50;231333.00;;;;5055361;28;20254;-73
2021/12/22 00:07:59;;;;;;;0.20;0.20;;;0.20;99.90;226.50;231333.00;;;;5053846;28;20205;-73
2021/12/22 00:10:27;;;;;;;0.10;0.10;;;0.30;99.90;226.50;231333.00;;;;5052806;28;20194;-73
2021/12/22 00:12:56;;;;;;;0.10;0.10;;;0.30;99.90;226.50;231333.00;;;;5052611;28;20214;-73
2021/12/22 00:15:24;;;;;;;0.20;0.20;;;0.30;99.90;226.50;231333.00;;;;5053412;28;20210;-73
2021/12/22 00:17:53;;;;;;;0.10;0.10;;;0.30;99.90;226.50;231333.00;;;;5053605;28;20233;-73
2021/12/22 00:20:20;;;;;;;0.10;0.10;;;0.40;99.90;226.50;231333.00;;;;5054543;28;20202;-72
2021/12/22 00:22:48;;;;;;;0.10;0.10;;;0.40;99.90;226.50;231333.00;;;;5055159;28;20276;-72
2021/12/22 00:25:16;;;;;;;0.10;0.10;;;0.40;99.90;226.50;231333.00;;;;5053995;28;20222;-73
2021/12/22 00:27:44;;;;;;;0.20;0.20;;;0.40;99.90;226.50;231333.00;;;;5057978;28;20687;-73
2021/12/22 00:30:14;;;;;;;0.10;0.10;;;0.40;99.90;226.50;231333.00;;;;5060370;28;20198;-72
2021/12/22 00:32:49;;;;;;;0.10;0.10;;;0.40;99.90;226.50;231333.00;;;;5057699;28;20268;-73
2021/12/22 00:35:19;;;;;;;0.10;0.10;;;0.40;99.90;226.50;231333.00;;;;5059239;28;20229;-73
2021/12/22 00:37:47;;;;;;;0.10;0.10;;;0.10;99.90;226.50;231333.00;;;;5060205;28;20203;-73
2021/12/22 00:40:15;;;;;;;0.10;0.10;;;0.00;99.90;226.50;231333.00;;;;5056508;28;20618;-73
2021/12/22 00:42:43;;;;;;;0.10;0.10;;;0.00;99.90;226.50;231333.00;;;;5056627;28;20218;-73
2021/12/22 00:45:11;;;;;;;0.17;0.17;;;0.10;99.90;226.50;231333.00;;;;5051196;28;20252;-73
2021/12/22 00:47:40;;;;;;;0.10;0.10;;;0.20;99.90;226.50;231333.00;;;;5052034;28;20252;-73
2021/12/22 00:50:10;;;;;;;0.10;0.10;;;0.20;99.90;226.50;231333.00;;;;5053199;28;20202;-73
2021/12/22 00:52:37;;;;;;;0.10;0.10;;;0.30;99.90;226.50;231333.00;;;;5050698;28;20784;-73
2021/12/22 00:55:07;;;;;;;0.17;0.17;;;0.30;99.90;226.50;231333.00;;;;5049788;28;20198;-74
2021/12/22 00:57:38;;;;;;;0.20;0.20;;;0.40;99.90;226.50;231333.00;;;;5048991;28;20659;-73
2021/12/22 01:00:09;;;;;;;0.10;0.10;;;0.30;99.90;226.50;231333.00;;;;5049632;28;20668;-73
2021/12/22 01:02:37;;;;;;;0.20;0.20;;;0.10;99.90;226.50;231333.00;;;;5048450;28;20237;-72
2021/12/22 01:05:08;;;;;;;0.10;0.10;;;0.10;99.90;226.50;231333.00;;;;5049714;28;20281;-73
2021/12/22 01:07:36;;;;;;;0.10;0.10;;;0.20;99.90;226.50;231333.00;;;;5048630;28;20218;-72
2021/12/22 01:10:20;;;;;;;0.10;0.10;;;0.20;99.90;226.50;231333.00;;;;5049375;28;20209;-73
2021/12/22 01:12:48;;;;;;;0.15;0.15;;;0.20;99.90;226.50;231333.00;;;;5049310;28;20609;-74
2021/12/22 01:15:16;;;;;;;0.10;0.10;;;0.20;99.90;226.50;231333.00;;;;5049990;28;20280;-74
2021/12/22 01:17:49;;;;;;;0.10;0.10;;;0.20;99.90;226.50;231333.00;;;;5049362;28;20206;-72
2021/12/22 01:20:25;;;;;;;0.10;0.10;;;0.30;99.90;226.50;231333.00;;;;5049012;28;21139;-73
2021/12/22 01:23:02;;;;;;;0.10;0.10;;;0.30;99.90;226.50;231333.00;;;;5048433;28;20313;-73
2021/12/22 01:25:33;;;;;;;0.10;0.10;;;0.30;99.90;226.50;231333.00;;;;5047506;28;20262;-73
2021/12/22 01:28:01;;;;;;;0.10;0.10;;;0.30;99.90;226.50;231333.00;;;;5047303;28;20655;-72
2021/12/22 01:30:32;;;;;;;0.10;0.10;;;0.40;99.90;226.50;231333.00;;;;5048225;28;20198;-73
2021/12/22 01:33:03;;;;;;;0.10;0.10;;;0.30;99.90;226.50;231333.00;;;;5047498;28;20566;-72
2021/12/22 01:35:35;;;;;;;0.10;0.10;;;0.30;99.90;226.50;231333.00;;;;5049386;28;20221;-73
2021/12/22 01:38:03;;;;;;;0.20;0.20;;;0.40;99.90;226.50;231333.00;;;;5048927;28;20203;-74
2021/12/22 01:40:33;;;;;;;0.10;0.10;;;0.30;99.90;226.50;231333.00;;;;5050082;28;20626;-73
2021/12/22 01:43:02;;;;;;;0.10;0.10;;;0.30;99.90;226.50;231333.00;;;;5048027;28;20557;-72
2021/12/22 01:45:53;;;;;;;0.10;0.10;;;0.20;99.90;226.50;231333.00;;;;5049605;28;20237;-72
2021/12/22 01:51:39;;;;;;;0.20;0.20;;;-0.10;99.90;226.50;231333.00;;;;5049198;28;20225;-72
2021/12/22 01:54:13;;;;;;;0.20;0.20;;;-0.30;99.90;226.50;231333.00;;;;5048454;28;20190;-72
2021/12/22 01:56:43;;;;;;;0.10;0.10;;;-0.40;99.90;226.50;231333.00;;;;5047645;28;20282;-75
2021/12/22 01:59:12;;;;;;;0.10;0.10;;;-0.50;99.90;226.50;231333.00;;;;5048793;28;20194;-73
2021/12/22 02:01:41;;;;;;;0.10;0.10;;;-0.40;99.90;226.50;231333.00;;;;5048746;28;20238;-72
2021/12/22 02:04:12;;;;;;;0.10;0.10;;;-0.30;99.90;226.50;231333.00;;;;5047703;28;20190;-73
2021/12/22 02:06:44;;;;;;;0.15;0.15;;;-0.20;99.90;226.50;231333.00;;;;5048645;28;20241;-73
2021/12/22 02:09:29;;;;;;;0.20;0.20;;;-0.10;99.90;226.50;231333.00;;;;5047342;28;20198;-72
2021/12/22 02:11:57;;;;;;;0.10;0.10;;;-0.10;99.90;226.50;231333.00;;;;5048412;28;20217;-74
2021/12/22 02:14:25;;;;;;;0.15;0.15;;;0.00;99.90;226.50;231333.00;;;;5047505;28;20198;-72
2021/12/22 02:16:53;;;;;;;0.10;0.10;;;0.00;99.90;226.50;231333.00;;;;5048672;28;20198;-72
2021/12/22 02:19:22;;;;;;;0.20;0.20;;;0.00;99.90;226.50;231333.00;;;;5048187;28;20542;-72
2021/12/22 02:21:56;;;;;;;0.20;0.20;;;0.00;99.90;226.50;231333.00;;;;5048229;28;20773;-73
2021/12/22 02:24:24;;;;;;;0.10;0.10;;;-0.10;99.90;226.50;231333.00;;;;5048518;28;20202;-73
2021/12/22 02:27:00;;;;;;;0.20;0.20;;;0.00;99.90;226.50;231333.00;;;;5047855;28;20284;-73
2021/12/22 02:29:36;;;;;;;0.10;0.10;;;-0.10;99.90;226.50;231333.00;;;;5048178;28;20591;-73
2021/12/22 02:32:10;;;;;;;0.20;0.20;;;-0.50;99.90;226.50;231333.00;;;;5050855;28;20772;-74
2021/12/22 02:34:43;;;;;;;0.10;0.10;;;-0.50;99.90;226.50;231333.00;;;;5067771;28;20197;-74
2021/12/22 02:37:17;;;;;;;0.13;0.13;;;-0.40;99.90;226.50;231333.00;;;;5064248;28;20384;-75
2021/12/22 02:39:48;;;;;;;0.17;0.17;;;-0.60;99.90;226.50;231333.00;;;;5067413;28;20252;-72
2021/12/22 02:42:20;;;;;;;0.10;0.10;;;-0.60;99.90;226.50;231333.00;;;;5066053;28;20218;-76
2021/12/22 02:44:48;;;;;;;0.20;0.20;;;-0.50;99.90;226.50;231333.00;;;;5068103;28;20202;-72
2021/12/22 02:47:19;;;;;;;0.20;0.20;;;-0.50;99.90;226.50;231333.00;;;;5064858;28;20314;-76
2021/12/22 02:49:48;;;;;;;0.20;0.20;;;-0.50;99.90;226.50;231333.00;;;;5055842;28;20214;-73
2021/12/22 02:52:19;;;;;;;0.20;0.20;;;-0.40;99.90;226.50;231333.00;;;;5047519;28;20229;-72
2021/12/22 02:54:53;;;;;;;0.17;0.17;;;-0.50;99.90;226.50;231333.00;;;;5048117;28;20202;-73
2021/12/22 02:57:29;;;;;;;0.20;0.20;;;-0.70;99.90;226.50;231333.00;;;;5046380;28;20733;-72
2021/12/22 03:00:29;;;;;;;0.10;0.10;;;-0.80;99.90;226.50;231333.00;;;;5047073;28;20671;-74
2021/12/22 03:03:04;;;;;;;0.20;0.20;;;-1.00;99.90;226.50;231333.00;;;;5047355;28;20207;-72
2021/12/22 03:05:34;;;;;;;0.10;0.10;;;-0.90;99.90;226.50;231333.00;;;;5048151;28;20205;-73
2021/12/22 03:08:03;;;;;;;0.20;0.20;;;-0.80;99.90;226.50;231333.00;;;;5047516;28;20190;-72
2021/12/22 03:10:32;;;;;;;0.20;0.20;;;-0.90;99.90;226.50;231333.00;;;;5048146;28;20198;-74
2021/12/22 03:13:03;;;;;;;0.20;0.20;;;-0.90;99.90;226.50;231333.00;;;;5046686;28;20232;-72
2021/12/22 03:15:33;;;;;;;0.20;0.20;;;-0.90;99.90;226.50;231333.00;;;;5047498;28;20213;-73
2021/12/22 03:18:02;;;;;;;0.13;0.13;;;-0.90;99.90;226.50;231333.00;;;;5046699;28;20282;-73
2021/12/22 03:20:30;;;;;;;0.10;0.10;;;-1.00;99.90;226.50;231333.00;;;;5048011;28;20710;-73
2021/12/22 03:22:58;;;;;;;0.10;0.10;;;-1.30;99.90;226.50;231333.00;;;;5048197;28;20606;-73
2021/12/22 03:25:27;;;;;;;0.20;0.20;;;-1.20;99.90;226.50;231333.00;;;;5045378;28;20199;-73
2021/12/22 03:28:01;;;;;;;0.20;0.20;;;-1.30;99.90;226.50;231333.00;;;;5046745;28;20194;-73
2021/12/22 03:30:32;;;;;;;0.20;0.20;;;-1.40;99.90;226.50;231333.00;;;;5029751;28;20240;-72
2021/12/22 03:33:00;;;;;;;0.17;0.17;;;-1.30;99.90;226.50;231333.00;;;;5046649;28;20218;-72
2021/12/22 03:35:28;;;;;;;0.20;0.20;;;-1.40;99.90;226.50;231333.00;;;;5047194;28;20202;-73
2021/12/22 03:37:59;;;;;;;0.20;0.20;;;-1.40;99.90;226.50;231333.00;;;;5047662;28;20254;-74
2021/12/22 03:40:29;;;;;;;0.20;0.20;;;-1.30;99.90;226.50;231333.00;;;;5047581;28;20194;-73
2021/12/22 03:42:58;;;;;;;0.20;0.20;;;-1.30;99.90;226.50;231333.00;;;;5047709;28;20241;-72
2021/12/22 03:45:26;;;;;;;0.15;0.15;;;-1.30;99.90;226.50;231333.00;;;;5051321;28;20190;-73
2021/12/22 03:47:55;;;;;;;0.10;0.10;;;-1.30;99.90;226.50;231333.00;;;;5048433;28;21389;-73
2021/12/22 03:50:23;;;;;;;0.20;0.20;;;-1.10;99.90;226.50;231333.00;;;;5050790;28;20663;-74
2021/12/22 03:52:51;;;;;;;0.20;0.20;;;-1.00;99.90;226.50;231333.00;;;;5051519;28;20270;-74
2021/12/22 03:55:19;;;;;;;0.20;0.20;;;-1.00;99.90;226.50;231333.00;;;;5050761;28;20210;-74
2021/12/22 03:57:50;;;;;;;0.10;0.10;;;-1.10;99.90;226.50;231333.00;;;;5051179;28;20730;-73
2021/12/22 04:00:19;;;;;;;0.10;0.10;;;-1.40;99.90;226.50;231333.00;;;;5053442;28;20682;-72
2021/12/22 04:02:47;;;;;;;0.10;0.10;;;-1.60;99.90;226.50;231333.00;;;;5051271;28;20218;-72
2021/12/22 04:05:17;;;;;;;0.20;0.20;;;-1.80;99.90;226.50;231333.00;;;;5050829;28;20459;-72
2021/12/22 04:07:45;;;;;;;0.20;0.20;;;-1.90;99.90;226.50;231333.00;;;;5050126;28;20222;-72
2021/12/22 04:10:21;;;;;;;0.17;0.17;;;-1.90;99.90;226.50;231333.00;;;;5050403;28;20194;-72
2021/12/22 04:12:54;;;;;;;0.20;0.20;;;-1.80;99.90;226.50;231333.00;;;;5050729;28;20214;-72
2021/12/22 04:15:26;;;;;;;0.20;0.20;;;-1.90;99.90;226.50;231333.00;;;;5050372;28;20206;-72
2021/12/22 04:17:54;;;;;;;0.10;0.10;;;-1.90;99.90;226.50;231333.00;;;;5050368;28;20202;-73
2021/12/22 04:20:23;;;;;;;0.20;0.20;;;-1.90;99.90;226.50;231333.00;;;;5033033;28;20206;-72
2021/12/22 04:22:51;;;;;;;0.20;0.20;;;-1.90;99.90;226.50;231333.00;;;;5050566;28;20280;-73
2021/12/22 04:25:21;;;;;;;0.10;0.10;;;-1.90;99.90;226.50;231333.00;;;;5048960;28;20203;-73
2021/12/22 04:27:52;;;;;;;0.20;0.20;;;-1.90;99.90;226.50;231333.00;;;;5048865;28;20222;-73
2021/12/22 04:30:22;;;;;;;0.20;0.20;;;-2.10;99.90;226.50;231333.00;;;;5033354;28;21391;-73
2021/12/22 04:32:51;;;;;;;0.20;0.20;;;-2.10;99.90;226.50;231333.00;;;;5049173;28;20598;-73
2021/12/22 04:35:20;;;;;;;0.20;0.20;;;-2.00;99.90;226.50;231333.00;;;;5049514;28;20252;-72
2021/12/22 04:37:48;;;;;;;0.20;0.20;;;-2.20;99.90;226.50;231333.00;;;;5050544;28;20595;-72
2021/12/22 04:40:16;;;;;;;0.20;0.20;;;-2.20;99.90;226.50;231333.00;;;;5050738;28;20229;-73
2021/12/22 04:42:45;;;;;;;0.20;0.20;;;-2.10;99.90;226.50;231333.00;;;;5049684;28;20214;-73
2021/12/22 04:45:16;;;;;;;0.20;0.20;;;-2.20;99.90;226.50;231333.00;;;;5049774;28;20203;-72
2021/12/22 04:47:45;;;;;;;0.20;0.20;;;-2.20;99.90;226.50;231333.00;;;;5049740;28;20226;-72
2021/12/22 04:50:17;;;;;;;0.20;0.20;;;-2.20;99.90;226.50;231333.00;;;;5049805;28;20195;-73
2021/12/22 04:52:56;;;;;;;0.20;0.20;;;-2.10;99.90;226.50;231333.00;;;;5049768;28;20226;-73
2021/12/22 04:55:26;;;;;;;0.20;0.20;;;-2.10;99.90;226.50;231333.00;;;;5049650;28;20652;-71
2021/12/22 04:57:55;;;;;;;0.20;0.20;;;-2.30;99.90;226.50;231333.00;;;;5050343;28;20221;-72
2021/12/22 05:00:27;;;;;;;0.20;0.20;;;-2.20;99.90;226.50;231333.00;;;;5050299;28;20195;-72
2021/12/22 05:02:57;;;;;;;0.20;0.20;;;-2.20;99.90;226.50;231333.00;;;;5049862;28;20632;-72
2021/12/22 05:05:26;;;;;;;0.20;0.20;;;-2.20;99.90;226.50;231333.00;;;;5048535;28;20205;-72
2021/12/22 05:07:54;;;;;;;0.20;0.20;;;-2.30;99.90;226.50;231333.00;;;;5032306;28;20214;-71
2021/12/22 05:10:24;;;;;;;0.20;0.20;;;-2.40;99.90;226.50;231333.00;;;;5049040;28;20737;-71
2021/12/22 05:12:53;;;;;;;0.20;0.20;;;-2.40;99.90;226.50;231333.00;;;;5049800;28;20222;-71
2021/12/22 05:15:25;;;;;;;0.20;0.20;;;-2.50;99.90;226.50;231333.00;;;;5047959;28;20263;-71
2021/12/22 05:18:22;;;;;;;0.20;0.20;;;-2.60;99.90;226.50;231333.00;;;;5049413;28;20236;-73
2021/12/22 05:20:51;;;;;;;0.20;0.20;;;-2.60;99.90;226.50;231333.00;;;;5048395;28;20202;-72
2021/12/22 05:23:20;;;;;;;0.20;0.20;;;-2.60;99.90;226.50;231333.00;;;;5048269;28;20202;-73
2021/12/22 05:25:48;;;;;;;0.20;0.20;;;-2.60;99.90;226.50;231333.00;;;;5049500;28;20194;-72
2021/12/22 05:28:16;;;;;;;0.20;0.20;;;-2.50;99.90;226.50;231333.00;;;;5049223;28;20718;-72
2021/12/22 05:30:47;;;;;;;0.20;0.20;;;-2.60;99.90;226.50;231333.00;;;;5049698;28;20206;-72
2021/12/22 05:33:15;;;;;;;0.20;0.20;;;-2.60;99.90;226.50;231333.00;;;;5048134;28;20714;-72
2021/12/22 05:35:43;;;;;;;0.20;0.20;;;-2.60;99.90;226.50;231333.00;;;;5049340;28;20232;-72
2021/12/22 05:38:11;;;;;;;0.20;0.20;;;-2.60;99.90;226.50;231333.00;;;;5049216;28;20659;-71
2021/12/22 05:40:39;;;;;;;0.20;0.20;;;-2.50;99.90;226.50;231333.00;;;;5050063;28;20198;-72
2021/12/22 05:43:09;;;;;;;0.20;0.20;;;-2.50;99.90;226.50;231333.00;;;;5048555;28;20210;-73
2021/12/22 05:45:37;;;;;;;0.20;0.20;;;-2.60;99.90;226.50;231333.00;;;;5033279;28;20194;-72
2021/12/22 05:48:06;;;;;;;0.20;0.20;;;-2.60;99.90;226.50;231333.00;;;;5051011;28;20214;-72
2021/12/22 05:50:35;;;;;;;0.20;0.20;;;-2.60;99.90;226.50;231333.00;;;;5033271;28;20202;-72
2021/12/22 05:53:03;;;;;;;0.20;0.20;;;-2.50;99.90;226.50;231333.00;;;;5047832;28;20218;-72
2021/12/22 05:55:31;;;;;;;0.20;0.20;;;-2.40;99.90;226.50;231333.00;;;;5049033;28;20194;-72
2021/12/22 05:57:59;;;;;;;0.20;0.20;;;-2.30;99.90;226.50;231333.00;;;;5049378;28;20190;-73
2021/12/22 06:00:27;;;;;;;0.20;0.20;;;-2.30;99.90;226.50;231333.00;;;;5051381;28;20194;-71
2021/12/22 06:02:56;;;;;;;0.20;0.20;;;-2.40;99.90;226.50;231333.00;;;;5050668;28;20271;-71
2021/12/22 06:05:26;;;;;;;0.20;0.20;;;-2.40;99.90;226.50;231333.00;;;;5047853;28;20222;-72
2021/12/22 06:07:56;;;;;;;0.20;0.20;;;-2.60;99.90;226.50;231333.00;;;;5050800;28;20218;-71
2021/12/22 06:10:24;;;;;;;0.20;0.20;;;-2.60;99.90;226.50;231333.00;;;;5052207;28;20192;-71
2021/12/22 06:12:52;;;;;;;0.20;0.20;;;-2.60;99.90;226.50;231333.00;;;;5048685;28;20222;-73
2021/12/22 06:15:20;;;;;;;0.20;0.20;;;-2.60;99.90;226.50;231333.00;;;;5048846;28;20256;-73
2021/12/22 06:17:54;;;;;;;0.20;0.20;;;-2.70;99.90;226.50;231333.00;;;;5031860;28;20609;-72
2021/12/22 06:20:22;;;;;;;0.20;0.20;;;-2.70;99.90;226.50;231333.00;;;;5049477;28;20256;-72
2021/12/22 06:22:51;;;;;;;0.20;0.20;;;-2.70;99.90;226.50;231333.00;;;;5048597;28;20218;-71
2021/12/22 06:25:20;;;;;;;0.20;0.20;;;-2.80;99.90;226.50;231333.00;;;;5048334;28;20264;-72
2021/12/22 06:27:48;;;;;;;0.20;0.20;;;-2.80;99.90;226.50;231333.00;;;;5047533;28;20614;-72
2021/12/22 06:30:18;;;;;;;0.20;0.20;;;-2.80;99.90;226.50;231333.00;;;;5046792;28;20202;-71
2021/12/22 06:32:46;;;;;;;0.10;0.10;;;-2.90;99.90;226.50;231333.00;;;;5047811;28;20707;-72
2021/12/22 06:35:14;;;;;;;0.20;0.20;;;-2.90;99.90;226.50;231333.00;;;;5048046;28;20622;-73
2021/12/22 06:37:44;;;;;;;0.20;0.20;;;-2.80;99.90;226.50;231333.00;;;;5048342;28;20198;-72
2021/12/22 06:40:15;;;;;;;0.20;0.20;;;-2.90;99.90;226.50;231333.00;;;;5047730;28;20210;-73
2021/12/22 06:42:43;;;;;;;0.20;0.20;;;-2.90;99.90;226.50;231333.00;;;;5048885;28;20222;-72
2021/12/22 06:45:13;;;;;;;0.20;0.20;;;-2.90;99.90;226.50;231333.00;;;;5047568;28;20619;-74
2021/12/22 06:47:42;;;;;;;0.20;0.20;;;-2.80;99.90;226.50;231333.00;;;;5049594;28;20218;-73
2021/12/22 06:50:11;;;;;;;0.20;0.20;;;-2.80;99.90;226.50;231333.00;;;;5046769;28;20186;-75
2021/12/22 06:52:39;;;;;;;0.20;0.20;;;-2.80;99.90;226.50;231333.00;;;;5049395;28;20234;-72
2021/12/22 06:55:08;;;;;;;0.20;0.20;;;-2.80;99.90;226.50;231333.00;;;;5047732;28;20206;-72
2021/12/22 06:57:37;;;;;;;0.20;0.20;;;-2.80;99.90;226.50;231333.00;;;;5047402;28;20198;-72
2021/12/22 07:00:11;;;;;;;0.20;0.20;;;-2.70;99.90;226.50;231333.00;;;;5051456;28;20213;-72
2021/12/22 07:02:39;;;;;;;0.20;0.20;;;-2.70;99.90;226.50;231333.00;;;;5053917;28;20297;-71
2021/12/22 07:05:18;;;;;;;0.20;0.20;;;-2.70;99.90;226.50;231333.00;;;;5039343;28;20224;-71
2021/12/22 07:07:47;;;;;;;0.20;0.20;;;-2.80;99.90;226.50;231333.00;;;;5033600;28;20246;-71
2021/12/22 07:10:16;;;;;;;0.20;0.20;;;-2.90;99.90;226.50;231333.00;;;;5057178;28;20221;-71
2021/12/22 07:12:48;;;;;;;0.20;0.20;;;-2.90;99.90;226.50;231333.00;;;;5057853;28;20218;-72
2021/12/22 07:15:18;;;;;;;0.20;0.20;;;-2.80;99.90;226.50;231333.00;;;;5052770;28;20194;-72
2021/12/22 07:17:50;;;;;;;0.20;0.20;;;-2.80;99.90;226.50;231333.00;;;;5052444;28;20202;-72
2021/12/22 07:20:19;;;;;;;0.20;0.20;;;-2.80;99.90;226.50;231333.00;;;;5055969;28;20201;-71
2021/12/22 07:22:48;;;;;;;0.20;0.20;;;-2.90;99.90;226.50;231333.00;;;;5057102;28;20214;-72
2021/12/22 07:25:18;;;;;;;0.20;0.20;;;-2.90;99.90;226.50;231333.00;;;;5057606;28;20206;-71
2021/12/22 07:27:48;;;;;;;0.20;0.20;;;-3.00;99.90;226.50;231333.00;;;;5057078;28;20202;-71
2021/12/22 07:30:16;;;;;;;0.20;0.20;;;-3.00;99.90;226.50;231333.00;;;;5060044;28;20260;-71
2021/12/22 07:32:44;;;;;;;0.10;0.10;;;-3.00;99.90;226.50;231333.00;;;;5059386;28;20650;-70
2021/12/22 07:35:19;;;;;;;0.20;0.20;;;-3.10;99.90;226.50;231333.00;;;;5050936;28;20202;-72
2021/12/22 07:37:57;;;;;;;0.20;0.20;;;-3.20;99.90;226.50;231333.00;;;;5058253;28;20202;-74
2021/12/22 07:40:25;;;;;;;0.20;0.20;;;-3.20;99.90;226.50;231333.00;;;;5057225;28;20199;-72
2021/12/22 07:42:54;;;;;;;0.20;0.20;;;-3.20;99.90;226.50;231333.00;;;;5059744;28;20240;-73
2021/12/22 07:45:23;;;;;;;0.20;0.20;;;-3.20;99.90;226.50;231333.00;;;;5052299;28;20209;-72
2021/12/22 07:47:51;;;;;;;0.20;0.20;;;-3.20;99.90;226.50;231333.00;;;;5033807;28;20210;-72
2021/12/22 07:50:19;;;;;;;0.20;0.20;;;-3.30;99.90;226.50;231333.00;;;;5051402;28;20202;-73
2021/12/22 07:52:47;;;;;;;0.20;0.20;;;-3.40;99.90;226.50;231333.00;;;;5053192;28;20229;-72
2021/12/22 07:55:17;;;;;;;0.20;0.20;;;-3.40;99.90;226.50;231333.00;;;;5050428;28;20238;-72
2021/12/22 07:57:45;;;;;;;0.20;0.20;;;-3.40;99.90;226.50;231333.00;;;;5054714;28;20205;-72
2021/12/22 08:00:16;;;;;;;0.17;0.17;;;-3.40;99.90;226.50;231333.00;;;;5053230;28;20198;-72
2021/12/22 08:02:45;;;;;;;0.20;0.20;;;-3.30;99.90;226.50;231333.00;;;;5051337;28;20631;-73
2021/12/22 08:05:33;;;;;;;0.20;0.20;;;-3.30;99.90;226.50;231333.00;;;;5051872;28;20618;-72
2021/12/22 08:08:01;;;;;;;0.20;0.20;;;-3.20;99.90;226.50;231333.00;;;;5050662;28;20194;-73
2021/12/22 08:10:29;;;;;;;0.20;0.20;;;-3.30;99.90;226.50;231333.00;;;;5052191;28;20264;-73
2021/12/22 08:12:58;;;;;;;0.20;0.20;;;-3.30;99.90;226.50;231333.00;;;;5051848;28;20268;-72
2021/12/22 08:15:27;;;;;;;0.20;0.20;;;-3.30;99.90;226.50;231333.00;;;;5048984;28;20195;-73
2021/12/22 08:17:56;;;;;;;0.20;0.20;;;-3.20;99.90;226.50;231333.00;;;;5050958;28;20655;-73
2021/12/22 08:20:25;;;;;;;0.20;0.20;;;-3.20;99.90;226.50;231333.00;;;;5051905;28;20252;-73
2021/12/22 08:22:53;;;;;;;0.20;0.20;;;-3.20;99.90;226.50;231333.00;;;;5050875;28;20256;-73
2021/12/22 08:25:22;;;;;;;0.30;0.30;;;-3.20;99.90;226.50;231333.00;;;;5050288;28;20511;-73
2021/12/22 08:27:51;;;;;;;0.20;0.20;;;-3.10;99.90;226.50;231333.00;;;;5049185;28;20675;-73
2021/12/22 08:30:20;;;;;;;0.20;0.20;;;-3.10;99.90;226.50;231333.00;;;;5048383;28;20345;-73
2021/12/22 08:32:50;;;;;;;0.20;0.20;;;-3.00;99.90;226.50;231333.00;;;;5048520;28;20702;-73
2021/12/22 08:35:20;;;;;;;0.20;0.20;;;-3.00;99.90;226.50;231333.00;;;;5048436;28;20202;-73
2021/12/22 08:40:34;;;;;;;0.20;0.20;;;-2.90;99.90;226.50;231333.00;;;;5049970;28;20198;-73
2021/12/22 08:43:03;;;;;;;0.20;0.20;;;-2.80;99.90;226.50;231333.00;;;;5048335;28;20215;-73
2021/12/22 08:45:31;;;;;;;0.20;0.20;;;-2.70;99.90;226.50;231333.00;;;;5049943;28;20244;-73
2021/12/22 08:48:00;;;;;;;0.20;0.20;;;-2.70;99.90;226.50;231333.00;;;;5030633;28;20202;-73
2021/12/22 08:50:28;;;;;;;0.10;0.10;;;-2.70;99.90;226.50;231333.00;;;;5049570;28;20718;-73
2021/12/22 08:52:56;;;;;;;0.20;0.20;;;-2.70;99.90;226.50;231333.00;;;;5050374;28;20639;-73
2021/12/22 08:55:24;;;;;;;0.20;0.20;;;-2.60;99.90;226.50;231333.00;;;;5048744;28;20202;-73
2021/12/22 08:57:52;;;;;;;0.20;0.20;;;-2.50;99.90;226.50;231333.00;;;;5049273;28;20202;-73
2021/12/22 09:00:20;;;;;;;0.10;0.10;;;-2.40;99.90;226.50;231333.00;;;;5049365;28;20207;-73
2021/12/22 09:02:49;;;;;;;0.20;0.20;;;-2.40;99.90;226.50;231333.00;;;;5047912;28;20222;-73
2021/12/22 09:05:20;;;;;;;0.20;0.20;;;-2.40;99.90;226.50;231333.00;;;;5049642;28;20672;-73
2021/12/22 09:07:48;;;;;;;0.20;0.20;;;-2.40;99.90;226.50;231333.00;;;;5047041;28;20215;-73
2021/12/22 09:10:16;;;;;;;0.20;0.20;;;-2.40;99.90;226.50;231333.00;;;;5047027;28;20230;-74
2021/12/22 09:12:44;;;;;;;0.20;0.20;;;-2.30;99.90;226.50;231333.00;;;;5048205;28;20210;-73
2021/12/22 09:15:12;;;;;;;0.20;0.20;;;-2.20;99.90;226.50;231333.00;;;;5050520;28;20210;-73
2021/12/22 09:17:40;;;;;;;0.20;0.20;;;-2.20;99.90;226.50;231333.00;;;;5048937;28;20206;-74
2021/12/22 09:20:09;;;;;;;0.20;0.20;;;-2.10;99.90;226.50;231333.00;;;;5048684;28;20277;-73
2021/12/22 09:22:38;;;;;;;0.20;0.20;;;-2.10;99.90;226.50;231333.00;;;;5049210;28;20237;-73
2021/12/22 09:25:08;;;;;;;0.20;0.20;;;-2.00;99.90;226.50;231333.00;;;;5047878;28;20249;-74
2021/12/22 09:27:36;;;;;;;0.20;0.20;;;-2.00;99.90;226.50;231333.00;;;;5046159;28;20190;-74
2021/12/22 09:30:06;;;;;;;0.20;0.20;;;-1.90;99.90;226.50;231333.00;;;;5047989;28;20276;-74
2021/12/22 09:32:34;;;;;;;0.20;0.20;;;-1.90;99.90;226.50;231333.00;;;;5050229;28;20219;-73
2021/12/22 09:35:02;;;;;;;0.20;0.20;;;-1.80;99.90;226.50;231333.00;;;;5048933;28;20606;-73
2021/12/22 09:37:30;;;;;;;0.20;0.20;;;-1.70;99.90;226.50;231333.00;;;;5049872;28;20620;-74
2021/12/22 09:40:00;;;;;;;0.20;0.20;;;-1.70;99.90;226.50;231333.00;;;;5047694;28;20199;-73
2021/12/22 09:42:28;;;;;;;0.20;0.20;;;-1.60;99.90;226.50;231333.00;;;;5048533;28;20558;-72
2021/12/22 09:45:00;;;;;;;0.20;0.20;;;-1.50;99.90;226.50;231333.00;;;;5047882;28;20709;-74
2021/12/22 09:47:36;;;;;;;0.20;0.20;;;-1.50;99.90;226.50;231333.00;;;;5048858;28;20199;-74
2021/12/22 09:50:09;;;;;;;0.20;0.20;;;-1.40;99.90;226.50;231333.00;;;;5048157;28;20629;-74
2021/12/22 09:52:39;;;;;;;0.20;0.20;;;-1.30;99.90;226.50;231333.00;;;;5048552;28;20292;-74
2021/12/22 09:55:10;;;;;;;0.20;0.20;;;-1.30;99.90;226.50;231333.00;;;;5048518;28;20194;-73
2021/12/22 09:57:38;;;;;;;0.20;0.20;;;-1.30;99.90;226.50;231333.00;;;;5047027;28;20199;-74
2021/12/22 10:00:08;;;;;;;0.20;0.20;;;-1.20;99.90;226.50;231333.00;;;;5046600;28;20205;-75
2021/12/22 10:02:42;;;;;;;0.20;0.20;;;-1.10;99.90;226.50;231333.00;;;;5048587;28;20743;-75
2021/12/22 10:05:10;;;;;;;0.20;0.20;;;-1.00;99.90;226.50;231333.00;;;;5048278;28;20249;-74
2021/12/22 10:07:41;;;;;;;0.10;0.10;;;-1.00;99.90;226.50;231333.00;;;;5046615;28;20215;-75
2021/12/22 10:10:14;;;;;;;0.20;0.20;;;-1.00;99.90;226.50;231333.00;;;;5048842;28;20589;-74
2021/12/22 10:12:44;;;;;;;0.20;0.20;;;-0.90;99.90;226.50;231333.00;;;;5046921;28;20240;-74
2021/12/22 10:15:12;;;;;;;0.10;0.10;;;-0.80;99.90;226.50;231333.00;;;;5046412;28;20209;-74
2021/12/22 10:17:46;;;;;;;0.20;0.20;;;-0.80;99.90;226.50;231333.00;;;;5046074;28;20197;-75
2021/12/22 10:20:17;;;;;;;0.10;0.10;;;-0.70;99.90;226.50;231333.00;;;;5048496;28;20256;-74
2021/12/22 10:22:47;;;;;;;0.17;0.17;;;-0.60;99.90;226.50;231333.00;;;;5045462;28;20593;-74
2021/12/22 10:25:21;;;;;;;0.15;0.15;;;-0.60;99.90;226.50;231333.00;;;;5047104;28;20240;-74
2021/12/22 10:28:00;;;;;;;0.10;0.10;;;-0.50;99.90;226.50;231333.00;;;;5049734;28;20324;-75
2021/12/22 10:30:35;;;;;;;0.10;0.10;;;-0.40;99.90;226.50;231333.00;;;;5044858;28;20624;-75
2021/12/22 10:33:15;;;;;;;0.10;0.10;;;-0.50;99.90;226.50;231333.00;;;;5048764;28;20755;-74
2021/12/22 10:35:46;;;;;;;0.20;0.20;;;-0.40;99.90;226.50;231333.00;;;;5046634;28;20263;-74
2021/12/22 10:38:17;;;;;;;0.10;0.10;;;-0.30;99.90;226.50;231333.00;;;;5046665;28;20202;-73
2021/12/22 10:40:48;;;;;;;0.20;0.20;;;-0.20;99.90;226.50;231333.00;;;;5048597;28;20264;-75
2021/12/22 10:43:22;;;;;;;0.20;0.20;;;-0.20;99.90;226.50;231333.00;;;;5046871;28;20240;-75
2021/12/22 10:45:53;;;;;;;0.10;0.10;;;-0.10;99.90;226.50;231333.00;;;;5046199;28;20190;-74
2021/12/22 10:51:27;;;;;;;0.10;0.10;;;0.00;99.90;226.50;231333.00;;;;5007119;28;20253;-74
2021/12/22 10:53:56;;;;;;;0.15;0.15;;;0.00;99.90;226.50;231333.00;;;;5047601;28;20259;-75
2021/12/22 10:56:30;;;;;;;0.10;0.10;;;0.00;99.90;226.50;231333.00;;;;5045298;28;20231;-74
2021/12/22 10:59:06;;;;;;;0.10;0.10;;;-0.10;99.90;226.50;231333.00;;;;5047054;28;20193;-74
2021/12/22 11:01:37;;;;;;;0.10;0.10;;;0.10;99.90;226.50;231333.00;;;;5047651;28;20272;-74
2021/12/22 11:04:16;;;;;;;0.20;0.20;;;0.20;99.90;226.50;231333.00;;;;5045322;28;20229;-73